WATT/KOE METAR and TAF weather

Enter ICAO airport designator
Station Type Date Time Source
WATT METAR 2022/02/01 14:00 UTC NOAA

WATT 011400Z 22008KT 8000 FEW015CB BKN016 26/22 Q1009 NOSIG RMK CB TO SW


Station Type Date Time Source
WATT Decoded METAR 2022/02/01 14:00 UTC NOAA

Station name not available
Feb 01, 2022 - 09:00 AM EST / 2022.02.01 1400 UTC
Wind: from the SW (220 degrees) at 9 MPH (8 KT):0
Visibility: 4 mile(s):0
Sky conditions: mostly cloudy
Weather: Cumulonimbus clouds observed
Temperature: 78 F (26 C)
Dew Point: 71 F (22 C)
Relative Humidity: 78%
Pressure (altimeter): 29.80 in. Hg (1009 hPa)
ob: WATT 011400Z 22008KT 8000 FEW015CB BKN016 26/22 Q1009 NOSIG RMK CB TO SW
cycle: 14

Station Type Date Time Source
WATT TAF 2022/06/28 06:00 UTC NOAA

TAF WATT 280500Z 2806/2906 09015G25KT 9999 SCT018
BECMG 2810/2812 11015KT

Example: see airport list